createdAt,value
2022-10-28T00:01:22.382Z,3.67
2022-10-28T00:03:57.603Z,4.47
2022-10-28T00:06:32.607Z,4.00
2022-10-28T00:09:00.582Z,2.72
2022-10-28T00:11:34.137Z,5.13
2022-10-28T00:14:06.760Z,3.00
2022-10-28T00:16:39.373Z,2.55
2022-10-28T00:19:12.475Z,3.83
2022-10-28T00:21:45.372Z,6.63
2022-10-28T00:24:14.125Z,2.40
2022-10-28T00:26:43.305Z,3.53
2022-10-28T00:29:14.079Z,4.20
2022-10-28T00:31:42.177Z,6.10
2022-10-28T00:34:18.530Z,6.72
2022-10-28T00:36:47.469Z,4.18
2022-10-28T00:39:16.247Z,7.45
2022-10-28T00:41:48.688Z,6.55
2022-10-28T00:44:41.166Z,6.57
2022-10-28T00:47:39.041Z,5.75
2022-10-28T00:50:24.748Z,10.95
2022-10-28T00:52:57.958Z,6.50
2022-10-28T00:55:27.307Z,6.45
2022-10-28T00:57:56.880Z,4.55
2022-10-28T01:00:25.969Z,5.90
2022-10-28T01:02:53.559Z,5.85
2022-10-28T01:05:24.574Z,3.75
2022-10-28T01:07:54.234Z,3.30
2022-10-28T01:10:28.851Z,4.65
2022-10-28T01:13:06.089Z,3.85
2022-10-28T01:15:55.318Z,7.45
2022-10-28T01:18:47.453Z,3.15
2022-10-28T01:21:20.524Z,3.13
2022-10-28T01:24:09.333Z,2.38
2022-10-28T01:27:03.016Z,4.25
2022-10-28T01:29:59.750Z,2.45
2022-10-28T01:32:42.314Z,2.40
2022-10-28T01:35:26.611Z,4.68
2022-10-28T01:38:03.439Z,4.05
2022-10-28T01:41:09.036Z,2.97
2022-10-28T01:44:13.890Z,2.03
2022-10-28T01:47:09.645Z,2.83
2022-10-28T01:49:48.309Z,3.35
2022-10-28T01:52:21.094Z,3.70
2022-10-28T01:54:53.323Z,6.13
2022-10-28T01:57:23.416Z,3.45
2022-10-28T01:59:52.372Z,2.75
2022-10-28T02:02:19.924Z,3.58
2022-10-28T02:04:47.392Z,2.10
2022-10-28T02:07:16.480Z,2.10
2022-10-28T02:09:46.865Z,3.22
2022-10-28T02:12:33.876Z,1.90
2022-10-28T02:15:13.509Z,2.75
2022-10-28T02:17:46.799Z,1.60
2022-10-28T02:20:40.890Z,3.10
2022-10-28T02:23:33.333Z,1.58
2022-10-28T02:26:00.887Z,1.90
2022-10-28T02:28:57.523Z,2.33
2022-10-28T02:31:30.481Z,1.83
2022-10-28T02:34:05.805Z,2.47
2022-10-28T02:36:38.997Z,1.35
2022-10-28T02:39:07.604Z,1.40
2022-10-28T02:41:51.428Z,1.38
2022-10-28T02:44:24.983Z,1.10
2022-10-28T02:46:56.570Z,1.30
2022-10-28T02:49:25.576Z,4.22
2022-10-28T02:51:57.966Z,2.13
2022-10-28T02:54:37.783Z,1.55
2022-10-28T02:57:19.644Z,1.20
2022-10-28T03:00:20.780Z,1.20
2022-10-28T03:02:48.482Z,1.05
2022-10-28T03:05:16.055Z,1.95
2022-10-28T03:07:43.636Z,2.05
2022-10-28T03:10:11.098Z,2.28
2022-10-28T03:12:38.631Z,1.50
2022-10-28T03:15:06.560Z,1.23
2022-10-28T03:17:34.291Z,1.30
2022-10-28T03:20:01.758Z,1.33
2022-10-28T03:22:29.300Z,4.00
2022-10-28T03:24:56.676Z,1.55
2022-10-28T03:27:24.204Z,1.25
2022-10-28T03:29:51.700Z,1.98
2022-10-28T03:32:19.188Z,1.63
2022-10-28T03:34:48.426Z,2.13
2022-10-28T03:37:15.872Z,3.33
2022-10-28T03:39:43.336Z,1.45
2022-10-28T03:42:11.348Z,3.38
2022-10-28T03:44:38.852Z,2.63
2022-10-28T03:47:06.414Z,3.95
2022-10-28T03:49:35.381Z,3.58
2022-10-28T03:52:05.130Z,1.63
2022-10-28T03:54:32.631Z,1.40
2022-10-28T03:57:00.133Z,2.72
2022-10-28T03:59:27.644Z,1.52
2022-10-28T04:01:55.360Z,2.17
2022-10-28T04:04:25.012Z,2.50
2022-10-28T04:06:54.565Z,3.75
2022-10-28T04:09:22.032Z,2.42
2022-10-28T04:11:49.520Z,2.25
2022-10-28T04:14:17.054Z,2.72
2022-10-28T04:16:44.517Z,1.50
2022-10-28T04:19:11.958Z,1.17
2022-10-28T04:21:39.432Z,1.50
2022-10-28T04:24:06.932Z,1.67
2022-10-28T04:26:34.429Z,1.50
2022-10-28T04:29:01.837Z,3.55
2022-10-28T04:31:29.274Z,2.92
2022-10-28T04:33:56.813Z,2.15
2022-10-28T04:36:24.372Z,3.95
2022-10-28T04:38:52.040Z,2.67
2022-10-28T04:41:19.579Z,2.10
2022-10-28T04:43:47.058Z,3.15
2022-10-28T04:46:14.590Z,8.07
2022-10-28T04:48:42.060Z,2.80
2022-10-28T04:51:09.574Z,2.50
2022-10-28T04:53:36.979Z,4.35
2022-10-28T04:56:04.691Z,5.93
2022-10-28T04:58:32.175Z,4.72
2022-10-28T05:01:00.685Z,3.92
2022-10-28T05:03:28.155Z,5.45
2022-10-28T05:05:55.591Z,7.47
2022-10-28T05:08:23.001Z,7.05
2022-10-28T05:10:51.208Z,6.70
2022-10-28T05:13:19.616Z,8.75
2022-10-28T05:15:50.330Z,16.55
2022-10-28T05:18:19.241Z,9.35
2022-10-28T05:20:52.803Z,8.60
2022-10-28T05:23:25.910Z,7.30
2022-10-28T05:25:57.573Z,12.90
2022-10-28T05:28:25.095Z,11.43
2022-10-28T05:30:52.593Z,10.48
2022-10-28T05:33:20.043Z,13.07
2022-10-28T05:35:47.647Z,6.63
2022-10-28T05:38:15.527Z,6.50
2022-10-28T05:40:42.982Z,7.78
2022-10-28T05:43:11.302Z,5.90
2022-10-28T05:45:38.819Z,6.65
2022-10-28T05:48:06.753Z,8.10
2022-10-28T05:50:34.389Z,15.40
2022-10-28T05:53:02.045Z,12.23
2022-10-28T05:55:29.724Z,17.17
2022-10-28T05:57:57.959Z,9.93
2022-10-28T06:00:27.343Z,10.38
2022-10-28T06:03:09.374Z,10.70
2022-10-28T06:05:42.193Z,8.93
2022-10-28T06:08:12.517Z,10.90
2022-10-28T06:10:40.860Z,8.02
2022-10-28T06:13:07.740Z,8.43
2022-10-28T06:15:35.277Z,7.35
2022-10-28T06:18:03.109Z,5.90
2022-10-28T06:20:30.607Z,6.40
2022-10-28T06:22:58.100Z,5.80
2022-10-28T06:25:26.129Z,7.95
2022-10-28T06:27:57.932Z,7.40
2022-10-28T06:30:26.848Z,4.85
2022-10-28T06:32:57.671Z,5.85
2022-10-28T06:35:25.294Z,7.63
2022-10-28T06:37:54.868Z,6.63
2022-10-28T06:40:26.209Z,7.78
2022-10-28T06:43:02.561Z,7.00
2022-10-28T06:45:31.998Z,11.70
2022-10-28T06:48:03.314Z,10.35
2022-10-28T06:50:31.264Z,6.45
2022-10-28T06:52:59.204Z,7.93
2022-10-28T06:55:27.780Z,9.13
2022-10-28T06:57:59.961Z,11.30
2022-10-28T07:00:28.841Z,11.25
2022-10-28T07:02:56.962Z,14.40
2022-10-28T07:05:26.938Z,9.55
2022-10-28T07:07:54.830Z,10.43
2022-10-28T07:10:22.621Z,6.38
2022-10-28T07:12:52.295Z,7.57
2022-10-28T07:15:19.910Z,6.40
2022-10-28T07:17:56.366Z,6.88
2022-10-28T07:20:25.937Z,6.63
2022-10-28T07:23:01.097Z,5.68
2022-10-28T07:25:30.655Z,11.10
2022-10-28T07:27:59.165Z,8.10
2022-10-28T07:30:28.589Z,4.78
2022-10-28T07:32:58.603Z,5.90
2022-10-28T07:35:26.348Z,7.57
2022-10-28T07:37:54.048Z,3.95
2022-10-28T07:40:26.122Z,9.00
2022-10-28T07:42:53.802Z,6.72
2022-10-28T07:45:21.425Z,7.75
2022-10-28T07:47:49.150Z,12.07
2022-10-28T07:50:16.660Z,6.28
2022-10-28T07:52:44.586Z,7.25
2022-10-28T07:55:12.498Z,13.57
2022-10-28T07:57:40.053Z,14.20
2022-10-28T08:00:08.190Z,9.07
2022-10-28T08:02:38.842Z,20.80
2022-10-28T08:05:06.978Z,13.15
2022-10-28T08:07:38.438Z,11.30
2022-10-28T08:10:07.088Z,20.30
2022-10-28T08:12:34.655Z,11.65
2022-10-28T08:15:02.875Z,16.33
2022-10-28T08:17:30.746Z,18.58
2022-10-28T08:19:58.363Z,14.60
2022-10-28T08:22:25.808Z,20.48
2022-10-28T08:24:53.357Z,18.15
2022-10-28T08:27:20.827Z,18.55
2022-10-28T08:29:48.383Z,21.15
2022-10-28T08:32:15.849Z,20.67
2022-10-28T08:34:43.766Z,15.95
2022-10-28T08:37:11.438Z,20.80
2022-10-28T08:39:39.028Z,23.50
2022-10-28T08:42:24.408Z,22.65
2022-10-28T08:45:38.969Z,20.83
2022-10-28T08:48:12.528Z,19.48
2022-10-28T08:50:50.480Z,23.45
2022-10-28T08:53:26.833Z,17.67
2022-10-28T08:56:03.573Z,26.20
2022-10-28T08:58:34.761Z,22.73
2022-10-28T09:01:05.289Z,19.75
2022-10-28T09:03:42.110Z,23.80
2022-10-28T09:06:10.988Z,30.60
2022-10-28T09:08:45.299Z,20.95
2022-10-28T09:11:31.203Z,18.67
2022-10-28T09:14:30.678Z,19.05
2022-10-28T09:17:28.850Z,13.80
2022-10-28T09:20:19.596Z,15.07
2022-10-28T09:22:59.650Z,15.68
2022-10-28T09:25:39.064Z,13.43
2022-10-28T09:28:47.967Z,11.98
2022-10-28T09:31:27.303Z,19.88
2022-10-28T09:34:10.792Z,24.77
2022-10-28T09:36:42.327Z,24.98
2022-10-28T09:39:23.968Z,24.48
2022-10-28T09:41:57.318Z,29.00
2022-10-28T09:44:45.682Z,28.65
2022-10-28T09:47:21.546Z,32.95
2022-10-28T09:49:51.655Z,25.88
2022-10-28T09:52:27.197Z,30.77
2022-10-28T09:54:56.271Z,29.33
2022-10-28T09:57:30.585Z,32.45
2022-10-28T10:00:00.079Z,27.17
2022-10-28T10:02:31.192Z,22.63
2022-10-28T10:05:00.959Z,32.33
2022-10-28T10:07:34.856Z,41.30
2022-10-28T10:10:11.597Z,31.55
2022-10-28T10:12:39.667Z,24.58
2022-10-28T10:15:11.759Z,34.85
2022-10-28T10:17:46.167Z,36.17
2022-10-28T10:20:22.871Z,36.15
2022-10-28T10:22:50.603Z,30.65
2022-10-28T10:25:25.837Z,27.80
2022-10-28T10:28:05.941Z,37.92
2022-10-28T10:30:39.803Z,38.03
2022-10-28T10:33:14.967Z,32.60
2022-10-28T10:35:42.534Z,28.10
2022-10-28T10:38:15.598Z,37.38
2022-10-28T10:40:52.566Z,21.73
2022-10-28T10:43:23.296Z,36.30
2022-10-28T10:46:03.611Z,29.80
2022-10-28T10:48:38.279Z,32.05
2022-10-28T10:51:21.031Z,25.35
2022-10-28T10:53:50.507Z,25.65
2022-10-28T10:56:32.858Z,23.10
2022-10-28T10:59:05.278Z,31.23
2022-10-28T11:01:36.966Z,24.98
2022-10-28T11:04:16.033Z,17.73
2022-10-28T11:06:45.083Z,20.60
2022-10-28T11:09:35.708Z,20.48
2022-10-28T11:12:35.675Z,25.88
2022-10-28T11:15:09.003Z,24.75
2022-10-28T11:17:36.477Z,24.83
2022-10-28T11:20:25.568Z,30.10
2022-10-28T11:23:06.205Z,25.40
2022-10-28T11:25:37.839Z,20.45
2022-10-28T11:28:08.511Z,20.38
2022-10-28T11:31:04.206Z,23.40
2022-10-28T11:33:40.685Z,18.42
2022-10-28T11:36:33.076Z,20.27
2022-10-28T11:39:20.694Z,14.35
2022-10-28T11:41:59.910Z,18.17
2022-10-28T11:44:46.443Z,17.58
2022-10-28T11:50:15.865Z,9.25
2022-10-28T11:53:36.238Z,5.78
2022-10-28T11:56:25.595Z,7.85
2022-10-28T11:59:23.480Z,4.50
2022-10-28T12:02:16.480Z,3.70
2022-10-28T12:04:51.033Z,5.05
2022-10-28T12:07:46.292Z,1.80
2022-10-28T12:10:35.765Z,3.15
2022-10-28T12:13:09.074Z,1.05
2022-10-28T12:16:18.305Z,1.75
2022-10-28T12:18:49.029Z,1.50
2022-10-28T12:21:31.947Z,2.05
2022-10-28T12:24:00.655Z,0.75
2022-10-28T12:26:39.909Z,4.25
2022-10-28T12:29:20.781Z,1.08
2022-10-28T12:31:54.046Z,2.58
2022-10-28T12:34:29.980Z,1.15
2022-10-28T12:37:13.119Z,1.08
2022-10-28T12:39:47.779Z,2.30
2022-10-28T12:42:54.505Z,0.75
2022-10-28T12:45:23.216Z,2.03
2022-10-28T12:48:15.249Z,0.30
2022-10-28T12:51:12.582Z,0.38
2022-10-28T12:53:49.143Z,0.47
2022-10-28T12:56:29.534Z,0.30
2022-10-28T12:59:15.851Z,0.95
2022-10-28T13:01:47.244Z,0.40
2022-10-28T13:04:15.145Z,0.30
2022-10-28T13:06:57.441Z,0.47
2022-10-28T13:09:39.248Z,0.20
2022-10-28T13:12:34.961Z,1.77
2022-10-28T13:15:18.339Z,2.13
2022-10-28T13:18:30.603Z,0.40
2022-10-28T13:21:00.844Z,0.30
2022-10-28T13:23:37.202Z,1.65
2022-10-28T13:26:33.609Z,0.98
2022-10-28T13:29:07.429Z,0.38
2022-10-28T13:31:46.150Z,0.35
2022-10-28T13:34:16.628Z,0.43
2022-10-28T13:36:56.565Z,0.45
2022-10-28T13:39:42.258Z,0.60
2022-10-28T13:42:13.024Z,0.85
2022-10-28T13:44:50.994Z,0.55
2022-10-28T13:47:32.070Z,0.98
2022-10-28T13:50:10.997Z,0.50
2022-10-28T13:52:43.603Z,1.45
2022-10-28T13:55:14.211Z,1.88
2022-10-28T13:57:47.688Z,0.68
2022-10-28T14:00:18.313Z,0.57
2022-10-28T14:03:08.563Z,0.30
2022-10-28T14:05:39.361Z,0.35
2022-10-28T14:08:29.636Z,0.20
2022-10-28T14:11:13.792Z,0.65
2022-10-28T14:13:52.186Z,1.63
2022-10-28T14:16:22.737Z,0.52
2022-10-28T14:19:04.222Z,1.48
2022-10-28T14:22:05.752Z,0.30
2022-10-28T14:24:42.101Z,2.13
2022-10-28T14:27:10.013Z,0.60
2022-10-28T14:29:55.770Z,0.68
2022-10-28T14:32:32.773Z,1.17
2022-10-28T14:35:02.559Z,1.15
2022-10-28T14:37:35.837Z,0.63
2022-10-28T14:40:31.101Z,0.70
2022-10-28T14:43:07.878Z,0.50
2022-10-28T14:45:45.114Z,0.88
2022-10-28T14:48:27.997Z,3.28
2022-10-28T14:50:57.470Z,1.33
2022-10-28T14:53:30.527Z,2.28
2022-10-28T14:56:02.239Z,0.82
2022-10-28T14:58:35.303Z,2.35
2022-10-28T15:01:18.480Z,2.28
2022-10-28T15:03:59.396Z,2.22
2022-10-28T15:06:37.451Z,1.13
2022-10-28T15:09:27.227Z,1.17
2022-10-28T15:12:14.082Z,4.18
2022-10-28T15:14:46.921Z,0.98
2022-10-28T15:17:26.238Z,1.40
2022-10-28T15:19:59.491Z,1.48
2022-10-28T15:22:33.265Z,1.80
2022-10-28T15:25:02.279Z,0.80
2022-10-28T15:27:32.203Z,0.85
2022-10-28T15:30:00.253Z,1.75
2022-10-28T15:32:33.034Z,1.02
2022-10-28T15:35:49.386Z,1.00
2022-10-28T15:38:29.321Z,1.33
2022-10-28T15:40:57.604Z,3.33
2022-10-28T15:43:30.841Z,5.38
2022-10-28T15:46:16.857Z,2.05
2022-10-28T15:48:44.332Z,1.67
2022-10-28T15:51:17.171Z,0.93
2022-10-28T15:53:49.260Z,2.40
2022-10-28T15:56:25.784Z,1.10
2022-10-28T15:58:59.137Z,1.45
2022-10-28T16:01:31.475Z,2.40
2022-10-28T16:03:59.274Z,1.45
2022-10-28T16:06:33.691Z,2.85
2022-10-28T16:09:03.415Z,1.55
2022-10-28T16:11:33.669Z,2.53
2022-10-28T16:14:17.771Z,0.82
2022-10-28T16:16:45.360Z,2.83
2022-10-28T16:19:33.063Z,5.03
2022-10-28T16:22:00.623Z,4.80
2022-10-28T16:24:28.041Z,4.72
2022-10-28T16:27:16.655Z,2.08
2022-10-28T16:29:44.492Z,2.08
2022-10-28T16:32:13.132Z,5.22
2022-10-28T16:34:41.264Z,2.33
2022-10-28T16:37:20.618Z,2.10
2022-10-28T16:39:48.697Z,1.92
2022-10-28T16:42:16.426Z,1.83
2022-10-28T16:44:44.052Z,3.03
2022-10-28T16:47:13.692Z,3.55
2022-10-28T16:49:41.964Z,4.40
2022-10-28T16:52:21.009Z,2.97
2022-10-28T16:54:49.711Z,4.05
2022-10-28T16:57:19.567Z,1.88
2022-10-28T16:59:47.918Z,2.90
2022-10-28T17:02:19.363Z,2.05
2022-10-28T17:04:47.098Z,3.83
2022-10-28T17:07:16.397Z,3.08
2022-10-28T17:09:44.502Z,2.83
2022-10-28T17:12:16.987Z,1.63
2022-10-28T17:14:44.604Z,1.75
2022-10-28T17:17:12.975Z,3.85
2022-10-28T17:19:41.146Z,2.30
2022-10-28T17:22:10.655Z,2.33
2022-10-28T17:24:38.661Z,2.75
2022-10-28T17:27:06.898Z,6.60
2022-10-28T17:29:34.992Z,2.70
2022-10-28T17:32:02.611Z,2.08
2022-10-28T17:34:30.224Z,1.65
2022-10-28T17:36:57.821Z,3.65
2022-10-28T17:39:26.568Z,2.85
2022-10-28T17:41:54.249Z,3.67
2022-10-28T17:44:21.841Z,2.47
2022-10-28T17:46:49.831Z,2.67
2022-10-28T17:49:18.213Z,3.72
2022-10-28T17:51:45.811Z,5.18
2022-10-28T17:54:13.436Z,4.05
2022-10-28T17:56:42.288Z,1.85
2022-10-28T17:59:09.986Z,2.47
2022-10-28T18:01:37.522Z,3.72
2022-10-28T18:04:06.246Z,1.20
2022-10-28T18:06:34.133Z,4.63
2022-10-28T18:09:01.863Z,3.95
2022-10-28T18:11:31.803Z,5.07
2022-10-28T18:13:59.545Z,4.13
2022-10-28T18:16:30.174Z,2.50
2022-10-28T18:19:02.389Z,1.90
2022-10-28T18:21:29.895Z,4.18
2022-10-28T18:24:04.155Z,1.58
2022-10-28T18:26:33.540Z,1.63
2022-10-28T18:29:04.150Z,5.07
2022-10-28T18:31:33.148Z,3.28
2022-10-28T18:34:01.673Z,5.22
2022-10-28T18:36:34.447Z,3.97
2022-10-28T18:39:07.025Z,5.60
2022-10-28T18:41:41.463Z,4.10
2022-10-28T18:44:17.132Z,6.03
2022-10-28T18:46:45.943Z,1.85
2022-10-28T18:49:13.445Z,1.40
2022-10-28T18:51:40.957Z,2.67
2022-10-28T18:54:08.391Z,2.53
2022-10-28T18:56:35.869Z,2.88
2022-10-28T18:59:04.822Z,2.15
2022-10-28T19:01:33.148Z,2.92
2022-10-28T19:04:04.350Z,3.00
2022-10-28T19:06:33.431Z,4.68
2022-10-28T19:09:04.169Z,3.45
2022-10-28T19:11:32.933Z,3.10
2022-10-28T19:14:05.180Z,7.95
2022-10-28T19:16:34.246Z,3.17
2022-10-28T19:19:04.398Z,4.22
2022-10-28T19:21:33.075Z,2.45
2022-10-28T19:24:00.565Z,2.40
2022-10-28T19:26:28.564Z,4.05
2022-10-28T19:28:57.595Z,3.50
2022-10-28T19:31:27.034Z,1.77
2022-10-28T19:33:55.114Z,4.13
2022-10-28T19:36:25.115Z,3.05
2022-10-28T19:38:53.971Z,2.00
2022-10-28T19:41:24.102Z,3.35
2022-10-28T19:43:58.206Z,3.30
2022-10-28T19:46:28.592Z,3.92
2022-10-28T19:48:58.358Z,3.63
2022-10-28T19:51:31.047Z,3.13
2022-10-28T19:54:01.108Z,3.55
2022-10-28T19:56:30.852Z,5.75
2022-10-28T19:59:00.322Z,5.60
2022-10-28T20:01:31.060Z,5.63
2022-10-28T20:03:59.208Z,4.63
2022-10-28T20:06:31.266Z,6.10
2022-10-28T20:08:59.109Z,6.38
2022-10-28T20:11:29.117Z,7.93
2022-10-28T20:14:00.953Z,5.45
2022-10-28T20:16:29.065Z,3.33
2022-10-28T20:18:57.877Z,4.13
2022-10-28T20:21:27.963Z,3.83
2022-10-28T20:23:57.166Z,6.65
2022-10-28T20:26:27.898Z,7.68
2022-10-28T20:28:56.088Z,7.38
2022-10-28T20:31:26.135Z,5.72
2022-10-28T20:33:59.734Z,6.70
2022-10-28T20:36:29.360Z,6.97
2022-10-28T20:38:59.564Z,8.35
2022-10-28T20:41:30.361Z,5.05
2022-10-28T20:43:58.316Z,13.38
2022-10-28T20:46:26.182Z,4.88
2022-10-28T20:48:54.418Z,7.20
2022-10-28T20:51:23.668Z,7.30
2022-10-28T20:53:51.533Z,7.20
2022-10-28T20:56:27.268Z,10.75
2022-10-28T20:58:56.207Z,7.15
2022-10-28T21:01:24.861Z,9.43
2022-10-28T21:03:57.833Z,10.25
2022-10-28T21:06:25.920Z,7.10
2022-10-28T21:08:54.617Z,7.30
2022-10-28T21:11:23.627Z,11.27
2022-10-28T21:13:53.292Z,8.50
2022-10-28T21:16:21.598Z,10.65
2022-10-28T21:18:50.355Z,12.75
2022-10-28T21:21:19.711Z,5.43
2022-10-28T21:23:47.219Z,10.27
2022-10-28T21:26:15.231Z,10.98
2022-10-28T21:28:43.711Z,11.18
2022-10-28T21:31:13.814Z,11.75
2022-10-28T21:33:42.612Z,15.45
2022-10-28T21:36:13.203Z,12.02
2022-10-28T21:38:41.117Z,10.15
2022-10-28T21:41:20.553Z,8.07
2022-10-28T21:43:49.917Z,10.05
2022-10-28T21:46:18.956Z,11.35
2022-10-28T21:48:46.973Z,9.70
2022-10-28T21:51:15.702Z,5.13
2022-10-28T21:53:44.489Z,7.80
2022-10-28T21:56:19.021Z,12.15
2022-10-28T21:58:48.917Z,7.90
2022-10-28T22:01:21.884Z,7.18
2022-10-28T22:03:51.014Z,7.57
2022-10-28T22:06:18.599Z,14.98
2022-10-28T22:08:46.976Z,8.70
2022-10-28T22:11:17.285Z,10.48
2022-10-28T22:13:45.285Z,9.35
2022-10-28T22:16:18.799Z,11.07
2022-10-28T22:18:46.806Z,7.78
2022-10-28T22:21:17.097Z,10.82
2022-10-28T22:23:44.864Z,10.82
2022-10-28T22:26:20.922Z,11.70
2022-10-28T22:31:18.542Z,5.78
2022-10-28T22:36:22.576Z,8.40
2022-10-28T22:38:50.742Z,9.20
2022-10-28T22:41:26.861Z,7.88
2022-10-28T22:43:56.981Z,11.43
2022-10-28T22:46:26.741Z,7.20
2022-10-28T22:48:54.250Z,9.57
2022-10-28T22:51:22.347Z,7.57
2022-10-28T22:53:50.292Z,12.52
2022-10-28T22:56:24.330Z,9.73
2022-10-28T22:58:57.699Z,9.70
2022-10-28T23:01:26.593Z,9.85
2022-10-28T23:03:54.964Z,8.88
2022-10-28T23:06:25.102Z,11.73
2022-10-28T23:08:53.291Z,8.02
2022-10-28T23:11:21.641Z,10.38
2022-10-28T23:13:53.608Z,7.93
2022-10-28T23:16:22.803Z,6.15
2022-10-28T23:18:50.591Z,4.70
2022-10-28T23:21:20.685Z,10.23
2022-10-28T23:23:53.970Z,8.00
2022-10-28T23:26:22.675Z,9.93
2022-10-28T23:28:52.809Z,8.52
2022-10-28T23:31:21.728Z,9.20
2022-10-28T23:33:49.762Z,6.95
2022-10-28T23:36:17.716Z,12.93
2022-10-28T23:38:45.427Z,8.30
2022-10-28T23:41:18.633Z,9.80
2022-10-28T23:43:48.733Z,8.90
2022-10-28T23:46:16.555Z,9.90
2022-10-28T23:48:44.124Z,6.53
2022-10-28T23:51:11.679Z,6.25
2022-10-28T23:53:39.319Z,5.60
2022-10-28T23:56:10.024Z,12.48
2022-10-28T23:58:37.634Z,7.53
